sensor_id;sensor_type;location;lat;lon;timestamp;temperature;humidity
46890;DHT22;32625;51.080;16.970;2024-01-06T00:00:03;3.00;99.90
46890;DHT22;32625;51.080;16.970;2024-01-06T00:03:26;3.00;99.90
46890;DHT22;32625;51.080;16.970;2024-01-06T00:06:40;3.00;99.90
46890;DHT22;32625;51.080;16.970;2024-01-06T00:09:54;3.10;99.90
46890;DHT22;32625;51.080;16.970;2024-01-06T00:13:05;3.10;99.90
46890;DHT22;32625;51.080;16.970;2024-01-06T00:16:19;3.10;99.90
46890;DHT22;32625;51.080;16.970;2024-01-06T00:19:34;3.00;99.90
46890;DHT22;32625;51.080;16.970;2024-01-06T00:22:48;3.00;99.90
46890;DHT22;32625;51.080;16.970;2024-01-06T00:25:59;3.00;99.90
46890;DHT22;32625;51.080;16.970;2024-01-06T00:29:13;3.10;99.90
46890;DHT22;32625;51.080;16.970;2024-01-06T00:32:27;3.10;99.90
46890;DHT22;32625;51.080;16.970;2024-01-06T00:35:43;3.10;99.90
46890;DHT22;32625;51.080;16.970;2024-01-06T00:38:54;3.10;99.90
46890;DHT22;32625;51.080;16.970;2024-01-06T00:42:08;3.10;99.90
46890;DHT22;32625;51.080;16.970;2024-01-06T00:45:22;3.10;99.90
46890;DHT22;32625;51.080;16.970;2024-01-06T00:48:36;3.10;99.90
46890;DHT22;32625;51.080;16.970;2024-01-06T00:51:48;3.20;99.90
46890;DHT22;32625;51.080;16.970;2024-01-06T00:55:02;3.20;99.90
46890;DHT22;32625;51.080;16.970;2024-01-06T00:58:16;3.10;99.90
46890;DHT22;32625;51.080;16.970;2024-01-06T01:01:31;3.10;99.90
46890;DHT22;32625;51.080;16.970;2024-01-06T01:04:42;3.10;99.90
46890;DHT22;32625;51.080;16.970;2024-01-06T01:07:58;3.10;99.90
46890;DHT22;32625;51.080;16.970;2024-01-06T01:11:12;3.10;99.90
46890;DHT22;32625;51.080;16.970;2024-01-06T01:14:27;3.20;99.90
46890;DHT22;32625;51.080;16.970;2024-01-06T01:17:38;3.20;99.90
46890;DHT22;32625;51.080;16.970;2024-01-06T01:20:52;3.20;99.90
46890;DHT22;32625;51.080;16.970;2024-01-06T01:24:06;3.20;99.90
46890;DHT22;32625;51.080;16.970;2024-01-06T01:27:21;3.10;99.90
46890;DHT22;32625;51.080;16.970;2024-01-06T01:30:32;3.20;99.90
46890;DHT22;32625;51.080;16.970;2024-01-06T01:33:46;3.20;99.90
46890;DHT22;32625;51.080;16.970;2024-01-06T01:37:00;3.20;99.90
46890;DHT22;32625;51.080;16.970;2024-01-06T01:40:16;3.20;99.90
46890;DHT22;32625;51.080;16.970;2024-01-06T01:43:27;3.20;99.90
46890;DHT22;32625;51.080;16.970;2024-01-06T01:46:42;3.20;99.90
46890;DHT22;32625;51.080;16.970;2024-01-06T01:49:57;3.20;99.90
46890;DHT22;32625;51.080;16.970;2024-01-06T01:53:11;3.20;99.90
46890;DHT22;32625;51.080;16.970;2024-01-06T01:56:23;3.30;99.90
46890;DHT22;32625;51.080;16.970;2024-01-06T01:59:38;3.20;99.90
46890;DHT22;32625;51.080;16.970;2024-01-06T02:02:52;3.20;99.90
46890;DHT22;32625;51.080;16.970;2024-01-06T02:06:06;3.20;99.90
46890;DHT22;32625;51.080;16.970;2024-01-06T02:09:18;3.30;99.90
46890;DHT22;32625;51.080;16.970;2024-01-06T02:12:33;3.20;99.90
46890;DHT22;32625;51.080;16.970;2024-01-06T02:15:47;3.20;99.90
46890;DHT22;32625;51.080;16.970;2024-01-06T02:19:02;3.20;99.90
46890;DHT22;32625;51.080;16.970;2024-01-06T02:22:13;3.20;99.90
46890;DHT22;32625;51.080;16.970;2024-01-06T02:25:27;3.30;99.90
46890;DHT22;32625;51.080;16.970;2024-01-06T02:28:43;3.30;99.90
46890;DHT22;32625;51.080;16.970;2024-01-06T02:32:01;3.20;99.90
46890;DHT22;32625;51.080;16.970;2024-01-06T02:35:12;3.30;99.90
46890;DHT22;32625;51.080;16.970;2024-01-06T02:38:27;3.20;99.90
46890;DHT22;32625;51.080;16.970;2024-01-06T02:41:41;3.20;99.90
46890;DHT22;32625;51.080;16.970;2024-01-06T02:44:56;3.20;99.90
46890;DHT22;32625;51.080;16.970;2024-01-06T02:48:07;3.20;99.90
46890;DHT22;32625;51.080;16.970;2024-01-06T02:51:22;3.20;99.90
46890;DHT22;32625;51.080;16.970;2024-01-06T02:54:36;3.10;99.90
46890;DHT22;32625;51.080;16.970;2024-01-06T02:57:50;3.20;99.90
46890;DHT22;32625;51.080;16.970;2024-01-06T03:01:01;3.10;99.90
46890;DHT22;32625;51.080;16.970;2024-01-06T03:04:16;3.10;99.90
46890;DHT22;32625;51.080;16.970;2024-01-06T03:07:30;3.20;99.90
46890;DHT22;32625;51.080;16.970;2024-01-06T03:10:44;3.10;99.90
46890;DHT22;32625;51.080;16.970;2024-01-06T03:13:55;3.10;99.90
46890;DHT22;32625;51.080;16.970;2024-01-06T03:17:11;3.00;99.90
46890;DHT22;32625;51.080;16.970;2024-01-06T03:20:25;2.90;99.90
46890;DHT22;32625;51.080;16.970;2024-01-06T03:23:39;2.90;99.90
46890;DHT22;32625;51.080;16.970;2024-01-06T03:26:50;2.90;99.90
46890;DHT22;32625;51.080;16.970;2024-01-06T03:30:04;2.90;99.90
46890;DHT22;32625;51.080;16.970;2024-01-06T03:33:19;3.00;99.90
46890;DHT22;32625;51.080;16.970;2024-01-06T03:36:33;3.00;99.90
46890;DHT22;32625;51.080;16.970;2024-01-06T03:39:44;3.00;99.90
46890;DHT22;32625;51.080;16.970;2024-01-06T03:42:58;3.00;99.90
46890;DHT22;32625;51.080;16.970;2024-01-06T03:46:14;3.00;99.90
46890;DHT22;32625;51.080;16.970;2024-01-06T03:49:29;3.00;99.90
46890;DHT22;32625;51.080;16.970;2024-01-06T03:52:41;3.00;99.90
46890;DHT22;32625;51.080;16.970;2024-01-06T03:55:55;3.10;99.90
46890;DHT22;32625;51.080;16.970;2024-01-06T03:59:09;3.00;99.90
46890;DHT22;32625;51.080;16.970;2024-01-06T04:02:23;3.00;99.90
46890;DHT22;32625;51.080;16.970;2024-01-06T04:05:34;3.00;99.90
46890;DHT22;32625;51.080;16.970;2024-01-06T04:08:48;3.00;99.90
46890;DHT22;32625;51.080;16.970;2024-01-06T04:12:03;3.00;99.90
46890;DHT22;32625;51.080;16.970;2024-01-06T04:15:17;3.00;99.90
46890;DHT22;32625;51.080;16.970;2024-01-06T04:18:28;3.00;99.90
46890;DHT22;32625;51.080;16.970;2024-01-06T04:21:44;3.00;99.90
46890;DHT22;32625;51.080;16.970;2024-01-06T04:24:58;3.00;99.90
46890;DHT22;32625;51.080;16.970;2024-01-06T04:28:12;2.90;99.90
46890;DHT22;32625;51.080;16.970;2024-01-06T04:31:23;3.00;99.90
46890;DHT22;32625;51.080;16.970;2024-01-06T04:34:37;2.90;99.90
46890;DHT22;32625;51.080;16.970;2024-01-06T04:37:51;2.90;99.90
46890;DHT22;32625;51.080;16.970;2024-01-06T04:41:06;2.90;99.90
46890;DHT22;32625;51.080;16.970;2024-01-06T04:44:19;2.90;99.90
46890;DHT22;32625;51.080;16.970;2024-01-06T04:47:34;2.90;99.90
46890;DHT22;32625;51.080;16.970;2024-01-06T04:50:48;3.00;99.90
46890;DHT22;32625;51.080;16.970;2024-01-06T04:54:04;2.90;99.90
46890;DHT22;32625;51.080;16.970;2024-01-06T04:57:15;2.90;99.90
46890;DHT22;32625;51.080;16.970;2024-01-06T05:00:30;2.90;99.90
46890;DHT22;32625;51.080;16.970;2024-01-06T05:03:44;2.90;99.90
46890;DHT22;32625;51.080;16.970;2024-01-06T05:06:58;2.90;99.90
46890;DHT22;32625;51.080;16.970;2024-01-06T05:10:10;2.80;99.90
46890;DHT22;32625;51.080;16.970;2024-01-06T05:13:24;2.90;99.90
46890;DHT22;32625;51.080;16.970;2024-01-06T05:16:38;2.80;99.90
46890;DHT22;32625;51.080;16.970;2024-01-06T05:19:52;2.80;99.90
46890;DHT22;32625;51.080;16.970;2024-01-06T05:23:04;2.90;99.90
46890;DHT22;32625;51.080;16.970;2024-01-06T05:26:19;2.80;99.90
46890;DHT22;32625;51.080;16.970;2024-01-06T05:29:33;2.80;99.90
46890;DHT22;32625;51.080;16.970;2024-01-06T05:32:47;2.90;99.90
46890;DHT22;32625;51.080;16.970;2024-01-06T05:35:58;2.90;99.90
46890;DHT22;32625;51.080;16.970;2024-01-06T05:39:12;2.90;99.90
46890;DHT22;32625;51.080;16.970;2024-01-06T05:42:27;2.90;99.90
46890;DHT22;32625;51.080;16.970;2024-01-06T05:45:41;2.90;99.90
46890;DHT22;32625;51.080;16.970;2024-01-06T05:48:52;2.90;99.90
46890;DHT22;32625;51.080;16.970;2024-01-06T05:52:07;2.90;99.90
46890;DHT22;32625;51.080;16.970;2024-01-06T05:55:21;2.90;99.90
46890;DHT22;32625;51.080;16.970;2024-01-06T05:58:36;2.90;99.90
46890;DHT22;32625;51.080;16.970;2024-01-06T06:01:48;2.80;99.90
46890;DHT22;32625;51.080;16.970;2024-01-06T06:05:02;2.80;99.90
46890;DHT22;32625;51.080;16.970;2024-01-06T06:08:16;2.80;99.90
46890;DHT22;32625;51.080;16.970;2024-01-06T06:11:30;2.80;99.90
46890;DHT22;32625;51.080;16.970;2024-01-06T06:14:41;2.80;99.90
46890;DHT22;32625;51.080;16.970;2024-01-06T06:17:55;2.80;99.90
46890;DHT22;32625;51.080;16.970;2024-01-06T06:21:13;2.80;99.90
46890;DHT22;32625;51.080;16.970;2024-01-06T06:24:27;2.80;99.90
46890;DHT22;32625;51.080;16.970;2024-01-06T06:27:38;2.80;99.90
46890;DHT22;32625;51.080;16.970;2024-01-06T06:30:55;2.70;99.90
46890;DHT22;32625;51.080;16.970;2024-01-06T06:34:09;2.70;99.90
46890;DHT22;32625;51.080;16.970;2024-01-06T06:37:23;2.70;99.90
46890;DHT22;32625;51.080;16.970;2024-01-06T06:40:34;2.70;99.90
46890;DHT22;32625;51.080;16.970;2024-01-06T06:43:48;2.70;99.90
46890;DHT22;32625;51.080;16.970;2024-01-06T06:47:02;2.60;99.90
46890;DHT22;32625;51.080;16.970;2024-01-06T06:50:17;2.70;99.90
46890;DHT22;32625;51.080;16.970;2024-01-06T06:53:28;2.70;99.90
46890;DHT22;32625;51.080;16.970;2024-01-06T06:56:42;2.70;99.90
46890;DHT22;32625;51.080;16.970;2024-01-06T06:59:57;2.70;99.90
46890;DHT22;32625;51.080;16.970;2024-01-06T07:03:12;2.70;99.90
46890;DHT22;32625;51.080;16.970;2024-01-06T07:06:25;2.70;99.90
46890;DHT22;32625;51.080;16.970;2024-01-06T07:09:40;2.70;99.90
46890;DHT22;32625;51.080;16.970;2024-01-06T07:12:54;2.70;99.90
46890;DHT22;32625;51.080;16.970;2024-01-06T07:16:08;2.70;99.90
46890;DHT22;32625;51.080;16.970;2024-01-06T07:19:29;2.70;99.90
46890;DHT22;32625;51.080;16.970;2024-01-06T07:22:44;2.70;99.90
46890;DHT22;32625;51.080;16.970;2024-01-06T07:25:58;2.70;99.90
46890;DHT22;32625;51.080;16.970;2024-01-06T07:29:13;2.70;99.90
46890;DHT22;32625;51.080;16.970;2024-01-06T07:32:24;2.70;99.90
46890;DHT22;32625;51.080;16.970;2024-01-06T07:35:40;2.70;99.90
46890;DHT22;32625;51.080;16.970;2024-01-06T07:38:57;2.80;99.90
46890;DHT22;32625;51.080;16.970;2024-01-06T07:42:11;2.70;99.90
46890;DHT22;32625;51.080;16.970;2024-01-06T07:45:22;2.80;99.90
46890;DHT22;32625;51.080;16.970;2024-01-06T07:48:36;2.70;99.90
46890;DHT22;32625;51.080;16.970;2024-01-06T07:51:51;2.80;99.90
46890;DHT22;32625;51.080;16.970;2024-01-06T07:55:05;2.70;99.90
46890;DHT22;32625;51.080;16.970;2024-01-06T07:58:16;2.70;99.90
46890;DHT22;32625;51.080;16.970;2024-01-06T08:01:30;2.80;99.90
46890;DHT22;32625;51.080;16.970;2024-01-06T08:04:45;2.80;99.90
46890;DHT22;32625;51.080;16.970;2024-01-06T08:08:01;2.70;99.90
46890;DHT22;32625;51.080;16.970;2024-01-06T08:11:12;2.80;99.90
46890;DHT22;32625;51.080;16.970;2024-01-06T08:14:26;2.80;99.90
46890;DHT22;32625;51.080;16.970;2024-01-06T08:17:40;2.80;99.90
46890;DHT22;32625;51.080;16.970;2024-01-06T08:20:54;2.80;99.90
46890;DHT22;32625;51.080;16.970;2024-01-06T08:24:05;2.80;99.90
46890;DHT22;32625;51.080;16.970;2024-01-06T08:27:20;2.80;99.90
46890;DHT22;32625;51.080;16.970;2024-01-06T08:30:35;2.80;99.90
46890;DHT22;32625;51.080;16.970;2024-01-06T08:33:49;2.90;99.90
46890;DHT22;32625;51.080;16.970;2024-01-06T08:37:01;2.80;99.90
46890;DHT22;32625;51.080;16.970;2024-01-06T08:40:16;2.90;99.90
46890;DHT22;32625;51.080;16.970;2024-01-06T08:43:31;2.90;99.90
46890;DHT22;32625;51.080;16.970;2024-01-06T08:46:45;2.90;99.90
46890;DHT22;32625;51.080;16.970;2024-01-06T08:49:56;2.90;99.90
46890;DHT22;32625;51.080;16.970;2024-01-06T08:53:11;2.80;99.90
46890;DHT22;32625;51.080;16.970;2024-01-06T08:56:25;2.80;99.90
46890;DHT22;32625;51.080;16.970;2024-01-06T08:59:39;2.80;99.90
46890;DHT22;32625;51.080;16.970;2024-01-06T09:02:51;2.80;99.90
46890;DHT22;32625;51.080;16.970;2024-01-06T09:06:05;2.60;99.90
46890;DHT22;32625;51.080;16.970;2024-01-06T09:09:19;2.60;99.90
46890;DHT22;32625;51.080;16.970;2024-01-06T09:12:35;2.60;99.90
46890;DHT22;32625;51.080;16.970;2024-01-06T09:15:46;2.60;99.90
46890;DHT22;32625;51.080;16.970;2024-01-06T09:19:00;2.60;99.90
46890;DHT22;32625;51.080;16.970;2024-01-06T09:22:14;2.50;99.90
46890;DHT22;32625;51.080;16.970;2024-01-06T09:25:28;2.50;99.90
46890;DHT22;32625;51.080;16.970;2024-01-06T09:28:39;2.50;99.90
46890;DHT22;32625;51.080;16.970;2024-01-06T09:31:54;2.40;99.90
46890;DHT22;32625;51.080;16.970;2024-01-06T09:35:08;2.60;99.90
46890;DHT22;32625;51.080;16.970;2024-01-06T09:38:22;2.60;99.90
46890;DHT22;32625;51.080;16.970;2024-01-06T09:41:33;2.50;99.90
46890;DHT22;32625;51.080;16.970;2024-01-06T09:44:49;2.60;99.90
46890;DHT22;32625;51.080;16.970;2024-01-06T09:48:05;2.50;99.90
46890;DHT22;32625;51.080;16.970;2024-01-06T09:51:22;2.40;99.90
46890;DHT22;32625;51.080;16.970;2024-01-06T09:54:34;2.40;99.90
46890;DHT22;32625;51.080;16.970;2024-01-06T09:57:48;2.50;99.90
46890;DHT22;32625;51.080;16.970;2024-01-06T10:01:03;2.50;99.90
46890;DHT22;32625;51.080;16.970;2024-01-06T10:04:17;2.50;99.90
46890;DHT22;32625;51.080;16.970;2024-01-06T10:07:34;2.40;99.90
46890;DHT22;32625;51.080;16.970;2024-01-06T10:10:48;2.40;99.90
46890;DHT22;32625;51.080;16.970;2024-01-06T10:14:03;2.40;99.90
46890;DHT22;32625;51.080;16.970;2024-01-06T10:17:18;2.20;99.90
46890;DHT22;32625;51.080;16.970;2024-01-06T10:20:30;2.20;99.90
46890;DHT22;32625;51.080;16.970;2024-01-06T10:23:44;2.30;99.90
46890;DHT22;32625;51.080;16.970;2024-01-06T10:26:59;2.20;99.90
46890;DHT22;32625;51.080;16.970;2024-01-06T10:30:14;2.20;99.90
46890;DHT22;32625;51.080;16.970;2024-01-06T10:33:29;2.30;99.90
46890;DHT22;32625;51.080;16.970;2024-01-06T10:36:46;2.40;99.90
46890;DHT22;32625;51.080;16.970;2024-01-06T10:40:06;2.40;99.90
46890;DHT22;32625;51.080;16.970;2024-01-06T10:43:21;2.40;99.90
46890;DHT22;32625;51.080;16.970;2024-01-06T10:46:33;2.40;99.90
46890;DHT22;32625;51.080;16.970;2024-01-06T10:49:49;3.10;99.90
46890;DHT22;32625;51.080;16.970;2024-01-06T10:53:09;2.30;99.90
46890;DHT22;32625;51.080;16.970;2024-01-06T10:56:24;2.30;99.90
46890;DHT22;32625;51.080;16.970;2024-01-06T10:59:35;2.40;99.90
46890;DHT22;32625;51.080;16.970;2024-01-06T11:02:51;2.30;99.90
46890;DHT22;32625;51.080;16.970;2024-01-06T11:06:06;2.40;99.90
46890;DHT22;32625;51.080;16.970;2024-01-06T11:09:26;2.30;99.90
46890;DHT22;32625;51.080;16.970;2024-01-06T11:12:38;2.40;99.90
46890;DHT22;32625;51.080;16.970;2024-01-06T11:15:52;2.30;99.90
46890;DHT22;32625;51.080;16.970;2024-01-06T11:22:42;2.30;99.90
46890;DHT22;32625;51.080;16.970;2024-01-06T11:25:53;2.30;99.90
46890;DHT22;32625;51.080;16.970;2024-01-06T11:29:44;2.30;99.90
46890;DHT22;32625;51.080;16.970;2024-01-06T11:32:59;2.20;99.90
46890;DHT22;32625;51.080;16.970;2024-01-06T11:36:14;2.30;99.90
46890;DHT22;32625;51.080;16.970;2024-01-06T11:39:36;2.30;99.90
46890;DHT22;32625;51.080;16.970;2024-01-06T11:42:57;2.20;99.90
46890;DHT22;32625;51.080;16.970;2024-01-06T11:46:11;2.20;99.90
46890;DHT22;32625;51.080;16.970;2024-01-06T11:49:26;2.10;99.90
46890;DHT22;32625;51.080;16.970;2024-01-06T11:52:39;2.20;99.90
46890;DHT22;32625;51.080;16.970;2024-01-06T11:55:54;2.10;99.90
46890;DHT22;32625;51.080;16.970;2024-01-06T11:59:09;2.20;99.90
46890;DHT22;32625;51.080;16.970;2024-01-06T12:02:23;2.20;99.90
46890;DHT22;32625;51.080;16.970;2024-01-06T12:05:34;2.20;99.90
46890;DHT22;32625;51.080;16.970;2024-01-06T12:08:48;2.20;99.90
46890;DHT22;32625;51.080;16.970;2024-01-06T12:12:03;2.20;99.90
46890;DHT22;32625;51.080;16.970;2024-01-06T12:15:18;2.10;99.90
46890;DHT22;32625;51.080;16.970;2024-01-06T12:18:29;2.20;99.90
46890;DHT22;32625;51.080;16.970;2024-01-06T12:21:43;2.20;99.90
46890;DHT22;32625;51.080;16.970;2024-01-06T12:24:58;2.10;99.90
46890;DHT22;32625;51.080;16.970;2024-01-06T12:28:15;2.10;99.90
46890;DHT22;32625;51.080;16.970;2024-01-06T12:31:26;2.00;99.90
46890;DHT22;32625;51.080;16.970;2024-01-06T12:34:41;2.20;99.90
46890;DHT22;32625;51.080;16.970;2024-01-06T12:37:55;2.10;99.90
46890;DHT22;32625;51.080;16.970;2024-01-06T12:41:10;2.10;99.90
46890;DHT22;32625;51.080;16.970;2024-01-06T12:44:21;2.10;99.90
46890;DHT22;32625;51.080;16.970;2024-01-06T12:47:36;2.10;99.90
46890;DHT22;32625;51.080;16.970;2024-01-06T12:50:51;2.20;99.90
46890;DHT22;32625;51.080;16.970;2024-01-06T12:54:05;2.10;99.90
46890;DHT22;32625;51.080;16.970;2024-01-06T12:57:16;2.00;99.90
46890;DHT22;32625;51.080;16.970;2024-01-06T13:00:32;2.00;99.90
46890;DHT22;32625;51.080;16.970;2024-01-06T13:03:50;2.00;99.90
46890;DHT22;32625;51.080;16.970;2024-01-06T13:07:05;2.10;99.90
46890;DHT22;32625;51.080;16.970;2024-01-06T13:10:17;2.10;99.90
46890;DHT22;32625;51.080;16.970;2024-01-06T13:13:31;2.00;99.90
46890;DHT22;32625;51.080;16.970;2024-01-06T13:16:45;2.00;99.90
46890;DHT22;32625;51.080;16.970;2024-01-06T13:19:59;2.00;99.90
46890;DHT22;32625;51.080;16.970;2024-01-06T13:23:10;2.10;99.90
46890;DHT22;32625;51.080;16.970;2024-01-06T13:26:27;2.00;99.90
46890;DHT22;32625;51.080;16.970;2024-01-06T13:29:41;2.00;99.90
46890;DHT22;32625;51.080;16.970;2024-01-06T13:32:57;2.00;99.90
46890;DHT22;32625;51.080;16.970;2024-01-06T13:36:09;2.10;99.90
46890;DHT22;32625;51.080;16.970;2024-01-06T13:39:23;2.10;99.90
46890;DHT22;32625;51.080;16.970;2024-01-06T13:42:38;2.00;99.90
46890;DHT22;32625;51.080;16.970;2024-01-06T13:45:52;1.90;99.90
46890;DHT22;32625;51.080;16.970;2024-01-06T13:49:03;2.00;99.90
46890;DHT22;32625;51.080;16.970;2024-01-06T13:52:18;1.90;99.90
46890;DHT22;32625;51.080;16.970;2024-01-06T13:55:32;1.90;99.90
46890;DHT22;32625;51.080;16.970;2024-01-06T13:58:48;1.90;99.90
46890;DHT22;32625;51.080;16.970;2024-01-06T14:01:59;1.90;99.90
46890;DHT22;32625;51.080;16.970;2024-01-06T14:05:14;1.90;99.90
46890;DHT22;32625;51.080;16.970;2024-01-06T14:08:29;1.80;99.90
46890;DHT22;32625;51.080;16.970;2024-01-06T14:11:43;1.90;99.90
46890;DHT22;32625;51.080;16.970;2024-01-06T14:14:54;1.90;99.90
46890;DHT22;32625;51.080;16.970;2024-01-06T14:18:08;1.90;99.90
46890;DHT22;32625;51.080;16.970;2024-01-06T14:21:24;1.90;99.90
46890;DHT22;32625;51.080;16.970;2024-01-06T14:24:39;1.90;99.90
46890;DHT22;32625;51.080;16.970;2024-01-06T14:27:50;1.90;99.90
46890;DHT22;32625;51.080;16.970;2024-01-06T14:31:04;1.90;99.90
46890;DHT22;32625;51.080;16.970;2024-01-06T14:34:18;1.90;99.90
46890;DHT22;32625;51.080;16.970;2024-01-06T14:37:34;1.70;99.90
46890;DHT22;32625;51.080;16.970;2024-01-06T14:40:45;1.70;99.90
46890;DHT22;32625;51.080;16.970;2024-01-06T14:43:59;1.70;99.90
46890;DHT22;32625;51.080;16.970;2024-01-06T14:47:14;1.70;99.90
46890;DHT22;32625;51.080;16.970;2024-01-06T14:50:28;1.70;99.90
46890;DHT22;32625;51.080;16.970;2024-01-06T14:53:39;1.70;99.90
46890;DHT22;32625;51.080;16.970;2024-01-06T14:56:53;1.60;99.90
46890;DHT22;32625;51.080;16.970;2024-01-06T15:00:07;1.70;99.90
46890;DHT22;32625;51.080;16.970;2024-01-06T15:03:24;1.60;99.90
46890;DHT22;32625;51.080;16.970;2024-01-06T15:06:35;1.60;99.90
46890;DHT22;32625;51.080;16.970;2024-01-06T15:09:51;1.70;99.90
46890;DHT22;32625;51.080;16.970;2024-01-06T15:13:05;1.70;99.90
46890;DHT22;32625;51.080;16.970;2024-01-06T15:16:19;1.60;99.90
46890;DHT22;32625;51.080;16.970;2024-01-06T15:19:30;1.60;99.90
46890;DHT22;32625;51.080;16.970;2024-01-06T15:22:45;1.60;99.90
46890;DHT22;32625;51.080;16.970;2024-01-06T15:26:00;1.50;99.90
46890;DHT22;32625;51.080;16.970;2024-01-06T15:29:17;1.40;99.90
46890;DHT22;32625;51.080;16.970;2024-01-06T15:32:29;1.40;99.90
46890;DHT22;32625;51.080;16.970;2024-01-06T15:35:43;1.40;99.90
46890;DHT22;32625;51.080;16.970;2024-01-06T15:38:57;1.20;99.90
46890;DHT22;32625;51.080;16.970;2024-01-06T15:42:13;1.30;99.90
46890;DHT22;32625;51.080;16.970;2024-01-06T15:45:24;1.20;99.90
46890;DHT22;32625;51.080;16.970;2024-01-06T15:48:38;1.20;99.90
46890;DHT22;32625;51.080;16.970;2024-01-06T15:51:52;1.20;99.90
46890;DHT22;32625;51.080;16.970;2024-01-06T15:55:07;1.30;99.90
46890;DHT22;32625;51.080;16.970;2024-01-06T15:58:18;1.40;99.90
46890;DHT22;32625;51.080;16.970;2024-01-06T16:01:32;1.30;99.90
46890;DHT22;32625;51.080;16.970;2024-01-06T16:04:46;1.30;99.90
46890;DHT22;32625;51.080;16.970;2024-01-06T16:08:01;1.30;99.90
46890;DHT22;32625;51.080;16.970;2024-01-06T16:11:12;1.30;99.90
46890;DHT22;32625;51.080;16.970;2024-01-06T16:14:28;1.20;99.90
46890;DHT22;32625;51.080;16.970;2024-01-06T16:17:44;1.20;99.90
46890;DHT22;32625;51.080;16.970;2024-01-06T16:20:59;1.20;99.90
46890;DHT22;32625;51.080;16.970;2024-01-06T16:24:12;1.00;99.90
46890;DHT22;32625;51.080;16.970;2024-01-06T16:27:26;1.20;99.90
46890;DHT22;32625;51.080;16.970;2024-01-06T16:30:41;1.20;99.90
46890;DHT22;32625;51.080;16.970;2024-01-06T16:33:55;1.10;99.90
46890;DHT22;32625;51.080;16.970;2024-01-06T16:37:07;1.10;99.90
46890;DHT22;32625;51.080;16.970;2024-01-06T16:40:21;1.10;99.90
46890;DHT22;32625;51.080;16.970;2024-01-06T16:43:35;1.10;99.90
46890;DHT22;32625;51.080;16.970;2024-01-06T16:46:53;1.10;99.90
46890;DHT22;32625;51.080;16.970;2024-01-06T16:50:08;1.10;99.90
46890;DHT22;32625;51.080;16.970;2024-01-06T16:53:22;1.00;99.90
46890;DHT22;32625;51.080;16.970;2024-01-06T16:56:36;1.00;99.90
46890;DHT22;32625;51.080;16.970;2024-01-06T16:59:50;1.00;99.90
46890;DHT22;32625;51.080;16.970;2024-01-06T17:03:01;1.10;99.90
46890;DHT22;32625;51.080;16.970;2024-01-06T17:06:15;1.10;99.90
46890;DHT22;32625;51.080;16.970;2024-01-06T17:09:30;1.10;99.90
46890;DHT22;32625;51.080;16.970;2024-01-06T17:12:45;1.20;99.90
46890;DHT22;32625;51.080;16.970;2024-01-06T17:15:57;1.20;99.90
46890;DHT22;32625;51.080;16.970;2024-01-06T17:19:12;1.20;99.90
46890;DHT22;32625;51.080;16.970;2024-01-06T17:22:27;1.10;99.90
46890;DHT22;32625;51.080;16.970;2024-01-06T17:25:41;1.00;99.90
46890;DHT22;32625;51.080;16.970;2024-01-06T17:28:52;1.00;99.90
46890;DHT22;32625;51.080;16.970;2024-01-06T17:32:06;1.00;99.90
46890;DHT22;32625;51.080;16.970;2024-01-06T17:35:20;1.00;99.90
46890;DHT22;32625;51.080;16.970;2024-01-06T17:38:34;1.00;99.90
46890;DHT22;32625;51.080;16.970;2024-01-06T17:41:45;1.00;99.90
46890;DHT22;32625;51.080;16.970;2024-01-06T17:45:12;1.00;99.90
46890;DHT22;32625;51.080;16.970;2024-01-06T17:48:26;1.10;99.90
46890;DHT22;32625;51.080;16.970;2024-01-06T17:51:43;1.20;99.90
46890;DHT22;32625;51.080;16.970;2024-01-06T17:54:54;1.00;99.90
46890;DHT22;32625;51.080;16.970;2024-01-06T17:58:09;1.00;99.90
46890;DHT22;32625;51.080;16.970;2024-01-06T18:01:23;1.00;99.90
46890;DHT22;32625;51.080;16.970;2024-01-06T18:04:37;1.00;99.90
46890;DHT22;32625;51.080;16.970;2024-01-06T18:07:49;0.90;99.90
46890;DHT22;32625;51.080;16.970;2024-01-06T18:11:03;1.00;99.90
46890;DHT22;32625;51.080;16.970;2024-01-06T18:14:17;1.10;99.90
46890;DHT22;32625;51.080;16.970;2024-01-06T18:17:31;0.90;99.90
46890;DHT22;32625;51.080;16.970;2024-01-06T18:20:45;0.90;99.90
46890;DHT22;32625;51.080;16.970;2024-01-06T18:24:04;0.90;99.90
46890;DHT22;32625;51.080;16.970;2024-01-06T18:27:18;0.70;99.90
46890;DHT22;32625;51.080;16.970;2024-01-06T18:30:32;0.80;99.90
46890;DHT22;32625;51.080;16.970;2024-01-06T18:33:44;0.80;99.90
46890;DHT22;32625;51.080;16.970;2024-01-06T18:36:58;0.80;99.90
46890;DHT22;32625;51.080;16.970;2024-01-06T18:40:12;0.80;99.90
46890;DHT22;32625;51.080;16.970;2024-01-06T18:43:26;0.70;99.90
46890;DHT22;32625;51.080;16.970;2024-01-06T18:46:38;0.70;99.90
46890;DHT22;32625;51.080;16.970;2024-01-06T18:49:54;0.70;99.90
46890;DHT22;32625;51.080;16.970;2024-01-06T18:53:09;0.70;99.90
46890;DHT22;32625;51.080;16.970;2024-01-06T18:56:25;0.70;99.90
46890;DHT22;32625;51.080;16.970;2024-01-06T18:59:38;0.60;99.90
46890;DHT22;32625;51.080;16.970;2024-01-06T19:02:52;0.50;99.90
46890;DHT22;32625;51.080;16.970;2024-01-06T19:06:06;0.40;99.90
46890;DHT22;32625;51.080;16.970;2024-01-06T19:09:21;0.60;99.90
46890;DHT22;32625;51.080;16.970;2024-01-06T19:12:32;0.70;99.90
46890;DHT22;32625;51.080;16.970;2024-01-06T19:15:47;0.60;99.90
46890;DHT22;32625;51.080;16.970;2024-01-06T19:19:01;0.50;99.90
46890;DHT22;32625;51.080;16.970;2024-01-06T19:22:15;0.60;99.90
46890;DHT22;32625;51.080;16.970;2024-01-06T19:25:27;0.70;99.90
46890;DHT22;32625;51.080;16.970;2024-01-06T19:28:42;0.60;99.90
46890;DHT22;32625;51.080;16.970;2024-01-06T19:31:57;0.40;99.90
46890;DHT22;32625;51.080;16.970;2024-01-06T19:35:11;0.40;99.90
46890;DHT22;32625;51.080;16.970;2024-01-06T19:38:22;0.50;99.90
46890;DHT22;32625;51.080;16.970;2024-01-06T19:41:37;0.60;99.90
46890;DHT22;32625;51.080;16.970;2024-01-06T19:44:51;0.50;99.90
46890;DHT22;32625;51.080;16.970;2024-01-06T19:48:05;0.50;99.90
46890;DHT22;32625;51.080;16.970;2024-01-06T19:51:17;0.60;99.90
46890;DHT22;32625;51.080;16.970;2024-01-06T19:54:31;0.60;99.90
46890;DHT22;32625;51.080;16.970;2024-01-06T19:57:46;0.50;99.90
46890;DHT22;32625;51.080;16.970;2024-01-06T20:01:02;0.50;99.90
46890;DHT22;32625;51.080;16.970;2024-01-06T20:04:13;0.50;99.90
46890;DHT22;32625;51.080;16.970;2024-01-06T20:07:28;0.50;99.90
46890;DHT22;32625;51.080;16.970;2024-01-06T20:10:43;0.50;99.90
46890;DHT22;32625;51.080;16.970;2024-01-06T20:13:57;0.40;99.90
46890;DHT22;32625;51.080;16.970;2024-01-06T20:17:08;0.40;99.90
46890;DHT22;32625;51.080;16.970;2024-01-06T20:20:26;0.30;99.90
46890;DHT22;32625;51.080;16.970;2024-01-06T20:23:40;0.20;99.90
46890;DHT22;32625;51.080;16.970;2024-01-06T20:26:55;0.30;99.90